createdAt,value
2018-11-22T12:16:00.436Z,100108.75
2018-11-22T12:19:05.234Z,100100.75
2018-11-22T12:22:09.783Z,100103.74
2018-11-22T12:25:18.806Z,100097.72
2018-11-22T12:28:23.357Z,100092.42
2018-11-22T12:31:27.948Z,100102.06
2018-11-22T12:35:36.234Z,100096.72
2018-11-22T12:38:40.822Z,100098.23
2018-11-22T12:41:45.477Z,100091.55
2018-11-22T12:44:50.166Z,100094.42
2018-11-22T12:47:54.852Z,100097.41
2018-11-22T12:50:59.631Z,100093.06
2018-11-22T12:54:04.172Z,100093.08
2018-11-22T12:57:08.733Z,100087.57
2018-11-22T13:00:15.833Z,100087.39
2018-11-22T13:03:20.439Z,100091.39
2018-11-22T13:06:25.096Z,100089.56
2018-11-22T13:09:29.663Z,100088.06
2018-11-22T13:12:34.315Z,100092.26
2018-11-22T13:15:38.943Z,100095.73
2018-11-22T13:18:43.779Z,100093.25
2018-11-22T13:21:48.416Z,100093.08
2018-11-22T13:24:52.996Z,100099.88
2018-11-22T13:27:57.601Z,100106.73
2018-11-22T13:31:02.476Z,100100.03
2018-11-22T13:34:07.279Z,100097.06
2018-11-22T13:37:11.997Z,100101.70
2018-11-22T13:40:16.730Z,100100.25
2018-11-22T13:43:21.344Z,100094.74
2018-11-22T13:46:26.226Z,100093.08
2018-11-22T13:49:30.828Z,100091.70
2018-11-22T13:52:37.267Z,100099.38
2018-11-22T13:55:40.045Z,100094.69
2018-11-22T13:58:44.871Z,100094.00
2018-11-22T14:01:49.436Z,100095.34
2018-11-22T14:04:54.077Z,100092.38
2018-11-22T14:07:58.775Z,100098.39
2018-11-22T14:11:03.421Z,100100.05
2018-11-22T14:14:08.090Z,100101.41
2018-11-22T14:17:12.923Z,100102.05
2018-11-22T14:20:21.761Z,100102.20
2018-11-22T14:23:26.376Z,100097.34
2018-11-22T14:26:30.979Z,100102.38
2018-11-22T14:29:35.828Z,100105.70
2018-11-22T14:32:42.006Z,100109.38
2018-11-22T14:35:46.771Z,100100.23
2018-11-22T14:38:51.423Z,100101.83
2018-11-22T14:41:55.975Z,100098.22
2018-11-22T14:45:00.698Z,100108.25
2018-11-22T14:48:05.690Z,100109.59
2018-11-22T14:51:22.721Z,100111.75
2018-11-22T14:54:27.266Z,100109.41
2018-11-22T14:57:31.915Z,100120.44
2018-11-22T15:00:36.640Z,100116.09
2018-11-22T15:03:41.135Z,100113.08
2018-11-22T15:06:45.864Z,100113.74
2018-11-22T15:09:50.633Z,100112.42
2018-11-22T15:12:55.305Z,100111.59
2018-11-22T15:16:00.076Z,100109.77
2018-11-22T15:19:04.625Z,100108.09
2018-11-22T15:22:09.317Z,100116.76
2018-11-22T15:25:16.585Z,100119.13
2018-11-22T15:28:21.260Z,100112.94
2018-11-22T15:31:25.899Z,100107.76
2018-11-22T15:34:30.804Z,100104.28
2018-11-22T15:37:35.653Z,100102.93
2018-11-22T15:40:40.192Z,100101.10
2018-11-22T15:43:44.688Z,100104.59
2018-11-22T15:46:52.341Z,100106.76
2018-11-22T15:49:56.931Z,100115.59
2018-11-22T15:53:01.513Z,100113.41
2018-11-22T15:56:06.247Z,100113.05
2018-11-22T15:59:10.809Z,100112.87
2018-11-22T16:02:15.690Z,100114.19
2018-11-22T16:05:20.973Z,100112.92
2018-11-22T16:08:25.549Z,100115.73
2018-11-22T16:11:30.304Z,100112.39
2018-11-22T16:14:34.879Z,100120.25
2018-11-22T16:17:40.078Z,100127.96
2018-11-22T16:20:44.864Z,100128.37
2018-11-22T16:23:49.515Z,100132.38
2018-11-22T16:26:54.145Z,100131.28
2018-11-22T16:30:12.077Z,100126.80
2018-11-22T16:33:22.748Z,100127.59
2018-11-22T16:36:27.432Z,100127.34
2018-11-22T16:39:32.078Z,100130.77
2018-11-22T16:42:36.735Z,100128.39
2018-11-22T16:45:41.251Z,100127.73
2018-11-22T16:48:45.904Z,100130.96
2018-11-22T16:51:50.477Z,100127.27
2018-11-22T16:54:54.975Z,100124.87
2018-11-22T16:58:00.809Z,100137.55
2018-11-22T17:01:05.571Z,100135.48
2018-11-22T17:04:10.311Z,100133.80
2018-11-22T17:07:14.929Z,100147.45
2018-11-22T17:10:20.903Z,100145.16
2018-11-22T17:13:25.485Z,100136.95
2018-11-22T17:16:30.103Z,100141.97
2018-11-22T17:19:34.737Z,100140.44
2018-11-22T17:22:39.867Z,100155.19
2018-11-22T17:25:44.383Z,100153.03
2018-11-22T17:28:48.965Z,100158.27
2018-11-22T17:31:53.619Z,100163.58
2018-11-22T17:34:58.057Z,100157.30
2018-11-22T17:38:04.092Z,100158.47
2018-11-22T17:41:08.760Z,100158.89
2018-11-22T17:44:13.323Z,100165.26
2018-11-22T17:47:18.145Z,100169.10
2018-11-22T17:50:25.336Z,100165.40
2018-11-22T17:53:29.953Z,100174.47
2018-11-22T17:56:34.540Z,100161.91
2018-11-22T17:59:39.302Z,100166.94
2018-11-22T18:02:44.864Z,100168.73
2018-11-22T18:05:50.164Z,100169.44
2018-11-22T18:08:54.730Z,100176.84
2018-11-22T18:11:59.324Z,100165.11
2018-11-22T18:15:03.975Z,100171.04
2018-11-22T18:18:08.635Z,100169.59
2018-11-22T18:21:13.203Z,100180.39
2018-11-22T18:24:17.905Z,100179.21
2018-11-22T18:27:22.434Z,100181.65
2018-11-22T18:30:28.573Z,100183.22
2018-11-22T18:33:33.197Z,100185.19
2018-11-22T18:36:44.265Z,100183.56
2018-11-22T18:39:48.865Z,100184.67
2018-11-22T18:42:54.603Z,100185.00
2018-11-22T18:45:59.209Z,100186.78
2018-11-22T18:49:03.907Z,100180.75
2018-11-22T18:52:08.555Z,100183.91
2018-11-22T18:55:13.306Z,100189.80
2018-11-22T18:58:17.868Z,100182.47
2018-11-22T19:01:22.414Z,100185.58
2018-11-22T19:04:27.084Z,100193.61
2018-11-22T19:07:32.146Z,100190.81
2018-11-22T19:10:38.226Z,100188.77
2018-11-22T19:13:42.838Z,100201.00
2018-11-22T19:16:47.468Z,100197.28
2018-11-22T19:19:52.066Z,100204.19
2018-11-22T19:22:57.284Z,100201.07
2018-11-22T19:26:02.000Z,100202.05
2018-11-22T19:29:06.727Z,100211.77
2018-11-22T19:32:11.316Z,100214.22
2018-11-22T19:35:17.213Z,100213.66
2018-11-22T19:38:21.924Z,100216.68
2018-11-22T19:41:26.457Z,100214.10
2018-11-22T19:44:31.676Z,100213.77
2018-11-22T19:47:36.330Z,100220.49
2018-11-22T19:50:40.919Z,100225.25
2018-11-22T19:53:45.592Z,100227.78
2018-11-22T19:56:50.285Z,100229.70
2018-11-22T19:59:54.935Z,100220.60
2018-11-22T20:03:01.016Z,100229.91
2018-11-22T20:06:06.318Z,100223.36
2018-11-22T20:09:12.166Z,100231.55
2018-11-22T20:12:16.841Z,100235.27
2018-11-22T20:15:21.776Z,100230.49
2018-11-22T20:18:26.495Z,100237.05
2018-11-22T20:21:31.383Z,100240.78
2018-11-22T20:24:36.079Z,100247.28
2018-11-22T20:27:41.198Z,100250.17
2018-11-22T20:30:48.058Z,100247.67
2018-11-22T20:33:52.932Z,100248.06
2018-11-22T20:36:57.561Z,100245.20
2018-11-22T20:40:02.221Z,100254.11
2018-11-22T20:43:07.204Z,100251.56
2018-11-22T20:46:12.706Z,100246.63
2018-11-22T20:49:17.409Z,100245.67
2018-11-22T20:52:22.239Z,100248.08
2018-11-22T20:55:28.549Z,100250.42
2018-11-22T20:58:33.217Z,100249.48
2018-11-22T21:01:38.073Z,100248.66
2018-11-22T21:04:42.737Z,100251.83
2018-11-22T21:07:47.557Z,100243.92
2018-11-22T21:10:52.384Z,100242.85
2018-11-22T21:13:57.073Z,100243.34
2018-11-22T21:17:02.132Z,100239.20
2018-11-22T21:20:08.685Z,100248.84
2018-11-22T21:23:13.267Z,100245.00
2018-11-22T21:26:17.953Z,100243.34
2018-11-22T21:29:22.564Z,100246.08
2018-11-22T21:32:27.176Z,100245.83
2018-11-22T21:35:32.278Z,100245.34
2018-11-22T21:38:36.944Z,100247.16
2018-11-22T21:41:41.904Z,100249.73
2018-11-22T21:44:46.502Z,100250.93
2018-11-22T21:47:51.278Z,100249.61
2018-11-22T21:50:55.929Z,100247.56
2018-11-22T21:54:01.052Z,100241.80
2018-11-22T21:57:05.770Z,100244.67
2018-11-22T22:00:23.184Z,100244.83
2018-11-22T22:03:27.731Z,100245.91
2018-11-22T22:06:32.340Z,100248.08
2018-11-22T22:09:37.090Z,100253.00
2018-11-22T22:12:42.586Z,100252.77
2018-11-22T22:15:47.260Z,100246.77
2018-11-22T22:18:51.848Z,100245.78
2018-11-22T22:21:56.424Z,100241.23
2018-11-22T22:25:00.937Z,100247.59
2018-11-22T22:28:05.667Z,100254.80
2018-11-22T22:31:10.318Z,100247.13
2018-11-22T22:34:14.921Z,100248.67
2018-11-22T22:37:19.481Z,100249.64
2018-11-22T22:40:26.577Z,100248.20
2018-11-22T22:43:31.144Z,100246.53
2018-11-22T22:46:35.715Z,100248.20
2018-11-22T22:49:40.335Z,100249.16
2018-11-22T22:52:45.283Z,100251.44
2018-11-22T22:55:50.011Z,100243.41
2018-11-22T22:58:55.342Z,100242.69
2018-11-22T23:01:59.996Z,100245.56
2018-11-22T23:05:04.845Z,100247.13
2018-11-22T23:08:09.448Z,100246.78
2018-11-22T23:11:14.183Z,100248.20
2018-11-22T23:14:18.751Z,100250.98
2018-11-22T23:17:23.408Z,100248.69
2018-11-22T23:20:30.173Z,100250.95
2018-11-22T23:23:34.741Z,100242.45
2018-11-22T23:26:39.276Z,100239.95
2018-11-22T23:29:43.912Z,100245.22
2018-11-22T23:32:52.510Z,100241.37
2018-11-22T23:35:57.239Z,100233.45
2018-11-22T23:39:01.872Z,100234.18
2018-11-22T23:42:07.020Z,100233.34
2018-11-22T23:45:12.856Z,100234.04
2018-11-22T23:48:17.606Z,100236.09
2018-11-22T23:51:22.149Z,100239.21
2018-11-22T23:54:26.824Z,100232.62
2018-11-22T23:57:31.491Z,100224.95
